sensor_id;sensor_type;location;lat;lon;timestamp;pressure;altitude;pressure_sealevel;temperature;humidity
73600;BME280;61877;48.246;9.220;2024-02-04T00:00:08;95240.31;;;5.14;100.00
73600;BME280;61877;48.246;9.220;2024-02-04T00:02:35;95236.91;;;5.09;100.00
73600;BME280;61877;48.246;9.220;2024-02-04T00:05:01;95230.53;;;5.10;100.00
73600;BME280;61877;48.246;9.220;2024-02-04T00:07:28;95220.41;;;5.12;100.00
73600;BME280;61877;48.246;9.220;2024-02-04T00:09:54;95209.28;;;5.05;100.00
73600;BME280;61877;48.246;9.220;2024-02-04T00:12:21;95193.59;;;5.03;100.00
73600;BME280;61877;48.246;9.220;2024-02-04T00:14:49;95191.16;;;5.12;100.00
73600;BME280;61877;48.246;9.220;2024-02-04T00:17:16;95188.94;;;5.19;100.00
73600;BME280;61877;48.246;9.220;2024-02-04T00:19:42;95185.56;;;5.13;100.00
73600;BME280;61877;48.246;9.220;2024-02-04T00:22:09;95177.06;;;5.11;100.00
73600;BME280;61877;48.246;9.220;2024-02-04T00:24:36;95169.88;;;5.12;100.00
73600;BME280;61877;48.246;9.220;2024-02-04T00:27:03;95178.16;;;5.05;100.00
73600;BME280;61877;48.246;9.220;2024-02-04T00:29:30;95171.50;;;5.03;100.00
73600;BME280;61877;48.246;9.220;2024-02-04T00:31:58;95166.25;;;4.93;100.00
73600;BME280;61877;48.246;9.220;2024-02-04T00:34:27;95175.31;;;4.92;100.00
73600;BME280;61877;48.246;9.220;2024-02-04T00:36:54;95172.69;;;4.87;100.00
73600;BME280;61877;48.246;9.220;2024-02-04T00:39:23;95172.41;;;4.88;100.00
73600;BME280;61877;48.246;9.220;2024-02-04T00:41:50;95177.41;;;4.95;100.00
73600;BME280;61877;48.246;9.220;2024-02-04T00:44:17;95164.97;;;4.90;100.00
73600;BME280;61877;48.246;9.220;2024-02-04T00:46:44;95150.66;;;4.81;100.00
73600;BME280;61877;48.246;9.220;2024-02-04T00:49:12;95139.31;;;4.71;100.00
73600;BME280;61877;48.246;9.220;2024-02-04T00:51:38;95145.09;;;4.78;100.00
73600;BME280;61877;48.246;9.220;2024-02-04T00:54:05;95149.69;;;4.67;100.00
73600;BME280;61877;48.246;9.220;2024-02-04T00:56:32;95138.50;;;4.70;100.00
73600;BME280;61877;48.246;9.220;2024-02-04T00:58:58;95145.91;;;4.73;100.00
73600;BME280;61877;48.246;9.220;2024-02-04T01:01:25;95147.47;;;4.79;100.00
73600;BME280;61877;48.246;9.220;2024-02-04T01:03:52;95145.56;;;4.85;100.00
73600;BME280;61877;48.246;9.220;2024-02-04T01:06:20;95150.13;;;4.79;100.00
73600;BME280;61877;48.246;9.220;2024-02-04T01:08:46;95140.03;;;4.76;100.00
73600;BME280;61877;48.246;9.220;2024-02-04T01:11:13;95133.22;;;4.65;100.00
73600;BME280;61877;48.246;9.220;2024-02-04T01:13:39;95146.81;;;4.54;100.00
73600;BME280;61877;48.246;9.220;2024-02-04T01:16:06;95139.16;;;4.47;100.00
73600;BME280;61877;48.246;9.220;2024-02-04T01:18:33;95130.63;;;4.50;100.00
73600;BME280;61877;48.246;9.220;2024-02-04T01:21:00;95128.78;;;4.51;100.00
73600;BME280;61877;48.246;9.220;2024-02-04T01:23:28;95126.59;;;4.58;100.00
73600;BME280;61877;48.246;9.220;2024-02-04T01:25:54;95145.19;;;4.58;100.00
73600;BME280;61877;48.246;9.220;2024-02-04T01:28:21;95132.69;;;4.63;100.00
73600;BME280;61877;48.246;9.220;2024-02-04T01:30:47;95144.63;;;4.66;100.00
73600;BME280;61877;48.246;9.220;2024-02-04T01:33:14;95142.00;;;4.61;100.00
73600;BME280;61877;48.246;9.220;2024-02-04T01:35:40;95138.28;;;4.62;100.00
73600;BME280;61877;48.246;9.220;2024-02-04T01:38:07;95157.38;;;4.69;100.00
73600;BME280;61877;48.246;9.220;2024-02-04T01:40:35;95144.63;;;4.71;100.00
73600;BME280;61877;48.246;9.220;2024-02-04T01:43:02;95152.06;;;4.69;100.00
73600;BME280;61877;48.246;9.220;2024-02-04T01:45:28;95158.94;;;4.75;100.00
73600;BME280;61877;48.246;9.220;2024-02-04T01:47:55;95156.81;;;4.72;100.00
73600;BME280;61877;48.246;9.220;2024-02-04T01:50:22;95157.00;;;4.85;100.00
73600;BME280;61877;48.246;9.220;2024-02-04T01:52:51;95146.16;;;4.77;100.00
73600;BME280;61877;48.246;9.220;2024-02-04T01:55:18;95139.28;;;4.76;100.00
73600;BME280;61877;48.246;9.220;2024-02-04T01:57:47;95135.00;;;4.75;100.00
73600;BME280;61877;48.246;9.220;2024-02-04T02:00:14;95133.44;;;4.74;100.00
73600;BME280;61877;48.246;9.220;2024-02-04T02:02:41;95114.78;;;4.79;100.00
73600;BME280;61877;48.246;9.220;2024-02-04T02:05:09;95112.16;;;4.74;100.00
73600;BME280;61877;48.246;9.220;2024-02-04T02:07:36;95104.97;;;4.74;100.00
73600;BME280;61877;48.246;9.220;2024-02-04T02:10:03;95101.59;;;4.64;100.00
73600;BME280;61877;48.246;9.220;2024-02-04T02:12:34;95117.56;;;4.59;100.00
73600;BME280;61877;48.246;9.220;2024-02-04T02:15:09;95111.13;;;4.70;100.00
73600;BME280;61877;48.246;9.220;2024-02-04T02:17:42;95120.69;;;4.71;100.00
73600;BME280;61877;48.246;9.220;2024-02-04T02:20:14;95122.25;;;4.77;100.00
73600;BME280;61877;48.246;9.220;2024-02-04T02:22:47;95124.69;;;4.68;100.00
73600;BME280;61877;48.246;9.220;2024-02-04T02:25:16;95122.75;;;4.79;100.00
73600;BME280;61877;48.246;9.220;2024-02-04T02:27:47;95126.00;;;4.71;100.00
73600;BME280;61877;48.246;9.220;2024-02-04T02:30:14;95137.13;;;4.73;100.00
73600;BME280;61877;48.246;9.220;2024-02-04T02:32:40;95142.44;;;4.73;100.00
73600;BME280;61877;48.246;9.220;2024-02-04T02:35:07;95151.47;;;4.77;100.00
73600;BME280;61877;48.246;9.220;2024-02-04T02:37:38;95151.72;;;4.80;100.00
73600;BME280;61877;48.246;9.220;2024-02-04T02:40:10;95146.13;;;4.82;100.00
73600;BME280;61877;48.246;9.220;2024-02-04T02:42:45;95150.91;;;4.85;100.00
73600;BME280;61877;48.246;9.220;2024-02-04T02:45:13;95152.25;;;4.82;100.00
73600;BME280;61877;48.246;9.220;2024-02-04T02:47:41;95154.03;;;4.92;100.00
73600;BME280;61877;48.246;9.220;2024-02-04T02:50:09;95155.38;;;4.89;100.00
73600;BME280;61877;48.246;9.220;2024-02-04T02:52:36;95158.34;;;4.83;100.00
73600;BME280;61877;48.246;9.220;2024-02-04T02:55:03;95148.50;;;4.83;100.00
73600;BME280;61877;48.246;9.220;2024-02-04T02:57:30;95147.47;;;4.79;100.00
73600;BME280;61877;48.246;9.220;2024-02-04T02:59:58;95142.97;;;4.75;100.00
73600;BME280;61877;48.246;9.220;2024-02-04T03:02:25;95144.63;;;4.71;100.00
73600;BME280;61877;48.246;9.220;2024-02-04T03:04:51;95143.28;;;4.68;100.00
73600;BME280;61877;48.246;9.220;2024-02-04T03:07:18;95134.78;;;4.66;100.00
73600;BME280;61877;48.246;9.220;2024-02-04T03:09:45;95139.06;;;4.62;100.00
73600;BME280;61877;48.246;9.220;2024-02-04T03:12:11;95123.94;;;4.58;100.00
73600;BME280;61877;48.246;9.220;2024-02-04T03:14:38;95130.88;;;4.54;100.00
73600;BME280;61877;48.246;9.220;2024-02-04T03:17:06;95127.16;;;4.50;100.00
73600;BME280;61877;48.246;9.220;2024-02-04T03:19:32;95129.84;;;4.45;100.00
73600;BME280;61877;48.246;9.220;2024-02-04T03:21:59;95120.31;;;4.39;100.00
73600;BME280;61877;48.246;9.220;2024-02-04T03:24:26;95124.59;;;4.30;100.00
73600;BME280;61877;48.246;9.220;2024-02-04T03:26:52;95120.31;;;4.39;100.00
73600;BME280;61877;48.246;9.220;2024-02-04T03:29:19;95125.34;;;4.45;100.00
73600;BME280;61877;48.246;9.220;2024-02-04T03:31:46;95124.50;;;4.50;100.00
73600;BME280;61877;48.246;9.220;2024-02-04T03:34:14;95119.78;;;4.42;100.00
73600;BME280;61877;48.246;9.220;2024-02-04T03:36:43;95120.31;;;4.39;100.00
73600;BME280;61877;48.246;9.220;2024-02-04T03:39:10;95125.03;;;4.52;100.00
73600;BME280;61877;48.246;9.220;2024-02-04T03:41:36;95135.66;;;4.52;100.00
73600;BME280;61877;48.246;9.220;2024-02-04T03:44:03;95135.66;;;4.57;100.00
73600;BME280;61877;48.246;9.220;2024-02-04T03:46:30;95137.22;;;4.58;100.00
73600;BME280;61877;48.246;9.220;2024-02-04T03:48:57;95138.06;;;4.53;100.00
73600;BME280;61877;48.246;9.220;2024-02-04T03:51:25;95142.06;;;4.51;100.00
73600;BME280;61877;48.246;9.220;2024-02-04T03:53:51;95147.66;;;4.49;100.00
73600;BME280;61877;48.246;9.220;2024-02-04T03:56:18;95147.16;;;4.42;100.00
73600;BME280;61877;48.246;9.220;2024-02-04T03:58:44;95149.03;;;4.37;100.00
73600;BME280;61877;48.246;9.220;2024-02-04T04:01:11;95147.44;;;4.36;100.00
73600;BME280;61877;48.246;9.220;2024-02-04T04:03:39;95148.00;;;4.33;100.00
73600;BME280;61877;48.246;9.220;2024-02-04T04:06:06;95143.44;;;4.33;100.00
73600;BME280;61877;48.246;9.220;2024-02-04T04:08:34;95133.06;;;4.42;100.00
73600;BME280;61877;48.246;9.220;2024-02-04T04:11:01;95141.56;;;4.44;100.00
73600;BME280;61877;48.246;9.220;2024-02-04T04:13:27;95134.88;;;4.46;100.00
73600;BME280;61877;48.246;9.220;2024-02-04T04:15:54;95133.09;;;4.32;100.00
73600;BME280;61877;48.246;9.220;2024-02-04T04:18:21;95134.41;;;4.39;100.00
73600;BME280;61877;48.246;9.220;2024-02-04T04:20:47;95134.13;;;4.41;100.00
73600;BME280;61877;48.246;9.220;2024-02-04T04:23:14;95125.69;;;4.29;100.00
73600;BME280;61877;48.246;9.220;2024-02-04T04:25:42;95126.25;;;4.26;100.00
73600;BME280;61877;48.246;9.220;2024-02-04T04:28:08;95123.97;;;4.48;100.00
73600;BME280;61877;48.246;9.220;2024-02-04T04:30:35;95118.06;;;4.66;100.00
73600;BME280;61877;48.246;9.220;2024-02-04T04:33:02;95117.50;;;4.69;100.00
73600;BME280;61877;48.246;9.220;2024-02-04T04:35:29;95118.56;;;4.68;100.00
73600;BME280;61877;48.246;9.220;2024-02-04T04:37:55;95118.09;;;4.61;100.00
73600;BME280;61877;48.246;9.220;2024-02-04T04:40:23;95122.84;;;4.64;100.00
73600;BME280;61877;48.246;9.220;2024-02-04T04:42:51;95123.94;;;4.58;100.00
73600;BME280;61877;48.246;9.220;2024-02-04T04:45:20;95118.06;;;4.66;100.00
73600;BME280;61877;48.246;9.220;2024-02-04T04:47:47;95127.66;;;4.62;100.00
73600;BME280;61877;48.246;9.220;2024-02-04T04:50:13;95122.84;;;4.64;100.00
73600;BME280;61877;48.246;9.220;2024-02-04T04:52:40;95119.09;;;4.70;100.00
73600;BME280;61877;48.246;9.220;2024-02-04T04:55:09;95114.84;;;4.69;100.00
73600;BME280;61877;48.246;9.220;2024-02-04T04:57:36;95103.72;;;4.62;100.00
73600;BME280;61877;48.246;9.220;2024-02-04T05:00:05;95090.53;;;4.47;100.00
73600;BME280;61877;48.246;9.220;2024-02-04T05:02:32;95091.38;;;4.37;100.00
73600;BME280;61877;48.246;9.220;2024-02-04T05:04:58;95094.91;;;4.28;100.00
73600;BME280;61877;48.246;9.220;2024-02-04T05:07:25;95092.00;;;4.24;100.00
73600;BME280;61877;48.246;9.220;2024-02-04T05:09:52;95099.97;;;4.19;100.00
73600;BME280;61877;48.246;9.220;2024-02-04T05:12:18;95097.44;;;4.43;100.00
73600;BME280;61877;48.246;9.220;2024-02-04T05:14:45;95092.34;;;4.51;100.00
73600;BME280;61877;48.246;9.220;2024-02-04T05:17:13;95090.56;;;4.42;100.00
73600;BME280;61877;48.246;9.220;2024-02-04T05:19:40;95089.56;;;4.33;100.00
73600;BME280;61877;48.246;9.220;2024-02-04T05:22:07;95089.88;;;4.21;100.00
73600;BME280;61877;48.246;9.220;2024-02-04T05:24:37;95084.09;;;4.09;100.00
73600;BME280;61877;48.246;9.220;2024-02-04T05:27:04;95081.50;;;3.94;100.00
73600;BME280;61877;48.246;9.220;2024-02-04T05:29:30;95092.44;;;3.77;100.00
73600;BME280;61877;48.246;9.220;2024-02-04T05:31:57;95107.84;;;3.65;100.00
73600;BME280;61877;48.246;9.220;2024-02-04T05:34:25;95116.34;;;3.57;100.00
73600;BME280;61877;48.246;9.220;2024-02-04T05:36:52;95111.59;;;3.59;100.00
73600;BME280;61877;48.246;9.220;2024-02-04T05:39:18;95143.69;;;3.53;100.00
73600;BME280;61877;48.246;9.220;2024-02-04T05:41:45;95132.81;;;3.64;100.00
73600;BME280;61877;48.246;9.220;2024-02-04T05:44:11;95133.28;;;3.76;100.00
73600;BME280;61877;48.246;9.220;2024-02-04T05:46:38;95129.56;;;3.87;100.00
73600;BME280;61877;48.246;9.220;2024-02-04T05:49:05;95134.56;;;3.94;100.00
73600;BME280;61877;48.246;9.220;2024-02-04T05:51:37;95144.41;;;3.88;100.00
73600;BME280;61877;48.246;9.220;2024-02-04T05:54:04;95160.88;;;3.80;100.00
73600;BME280;61877;48.246;9.220;2024-02-04T05:56:31;95157.69;;;3.83;100.00
73600;BME280;61877;48.246;9.220;2024-02-04T05:58:57;95171.50;;;3.75;100.00
73600;BME280;61877;48.246;9.220;2024-02-04T06:01:24;95171.78;;;3.64;100.00
73600;BME280;61877;48.246;9.220;2024-02-04T06:03:51;95175.78;;;3.56;100.00
73600;BME280;61877;48.246;9.220;2024-02-04T06:06:18;95179.50;;;3.55;100.00
73600;BME280;61877;48.246;9.220;2024-02-04T06:08:46;95180.03;;;3.52;100.00
73600;BME280;61877;48.246;9.220;2024-02-04T06:11:13;95171.28;;;3.47;100.00
73600;BME280;61877;48.246;9.220;2024-02-04T06:13:41;95175.00;;;3.41;100.00
73600;BME280;61877;48.246;9.220;2024-02-04T06:16:08;95173.16;;;3.36;100.00
73600;BME280;61877;48.246;9.220;2024-02-04T06:18:35;95178.44;;;3.31;100.00
73600;BME280;61877;48.246;9.220;2024-02-04T06:21:02;95174.72;;;3.27;100.00
73600;BME280;61877;48.246;9.220;2024-02-04T06:23:29;95190.09;;;3.25;100.00
73600;BME280;61877;48.246;9.220;2024-02-04T06:25:56;95190.09;;;3.25;100.00
73600;BME280;61877;48.246;9.220;2024-02-04T06:28:23;95188.50;;;3.19;100.00
73600;BME280;61877;48.246;9.220;2024-02-04T06:30:50;95178.44;;;3.16;100.00
73600;BME280;61877;48.246;9.220;2024-02-04T06:33:16;95169.94;;;3.14;100.00
73600;BME280;61877;48.246;9.220;2024-02-04T06:35:43;95179.47;;;3.15;100.00
73600;BME280;61877;48.246;9.220;2024-02-04T06:38:10;95185.84;;;3.14;100.00
73600;BME280;61877;48.246;9.220;2024-02-04T06:40:36;95177.63;;;3.11;100.00
73600;BME280;61877;48.246;9.220;2024-02-04T06:43:04;95174.44;;;3.09;100.00
73600;BME280;61877;48.246;9.220;2024-02-04T06:45:31;95163.84;;;3.09;100.00
73600;BME280;61877;48.246;9.220;2024-02-04T06:47:57;95169.16;;;3.09;100.00
73600;BME280;61877;48.246;9.220;2024-02-04T06:50:24;95165.97;;;3.07;100.00
73600;BME280;61877;48.246;9.220;2024-02-04T06:52:51;95175.25;;;3.14;100.00
73600;BME280;61877;48.246;9.220;2024-02-04T06:55:17;95178.19;;;3.13;100.00
73600;BME280;61877;48.246;9.220;2024-02-04T06:57:44;95178.72;;;3.10;100.00
73600;BME280;61877;48.246;9.220;2024-02-04T07:00:13;95168.88;;;3.15;100.00
73600;BME280;61877;48.246;9.220;2024-02-04T07:02:40;95171.28;;;3.12;100.00
73600;BME280;61877;48.246;9.220;2024-02-04T07:05:07;95173.94;;;3.12;100.00
73600;BME280;61877;48.246;9.220;2024-02-04T07:07:34;95176.56;;;3.17;100.00
73600;BME280;61877;48.246;9.220;2024-02-04T07:10:01;95168.63;;;3.17;100.00
73600;BME280;61877;48.246;9.220;2024-02-04T07:12:28;95169.97;;;3.24;100.00
73600;BME280;61877;48.246;9.220;2024-02-04T07:14:54;95162.81;;;3.35;100.00
73600;BME280;61877;48.246;9.220;2024-02-04T07:17:22;95166.22;;;3.40;100.00
73600;BME280;61877;48.246;9.220;2024-02-04T07:19:49;95169.16;;;3.39;100.00
73600;BME280;61877;48.246;9.220;2024-02-04T07:22:16;95167.84;;;3.41;100.00
73600;BME280;61877;48.246;9.220;2024-02-04T07:24:42;95171.53;;;3.50;100.00
73600;BME280;61877;48.246;9.220;2024-02-04T07:27:09;95176.84;;;3.55;100.00
73600;BME280;61877;48.246;9.220;2024-02-04T07:29:36;95187.44;;;3.60;100.00
73600;BME280;61877;48.246;9.220;2024-02-04T07:32:02;95190.09;;;3.65;100.00
73600;BME280;61877;48.246;9.220;2024-02-04T07:34:30;95181.34;;;3.60;100.00
73600;BME280;61877;48.246;9.220;2024-02-04T07:36:57;95185.06;;;3.69;100.00
73600;BME280;61877;48.246;9.220;2024-02-04T07:39:24;95176.28;;;3.68;100.00
73600;BME280;61877;48.246;9.220;2024-02-04T07:41:50;95175.75;;;3.76;100.00
73600;BME280;61877;48.246;9.220;2024-02-04T07:44:17;95172.56;;;3.79;100.00
73600;BME280;61877;48.246;9.220;2024-02-04T07:46:44;95175.72;;;3.86;100.00
73600;BME280;61877;48.246;9.220;2024-02-04T07:49:10;95165.88;;;3.97;100.00
73600;BME280;61877;48.246;9.220;2024-02-04T07:51:38;95155.50;;;4.06;100.00
73600;BME280;61877;48.246;9.220;2024-02-04T07:54:06;95144.84;;;4.21;100.00
73600;BME280;61877;48.246;9.220;2024-02-04T07:56:32;95146.13;;;4.28;100.00
73600;BME280;61877;48.246;9.220;2024-02-04T07:58:59;95142.69;;;4.33;100.00
73600;BME280;61877;48.246;9.220;2024-02-04T08:01:25;95143.97;;;4.40;100.00
73600;BME280;61877;48.246;9.220;2024-02-04T08:03:52;95148.44;;;4.50;100.00
73600;BME280;61877;48.246;9.220;2024-02-04T08:06:19;95150.75;;;4.61;100.00
73600;BME280;61877;48.246;9.220;2024-02-04T08:08:47;95145.41;;;4.66;100.00
73600;BME280;61877;48.246;9.220;2024-02-04T08:11:17;95151.00;;;4.65;100.00
73600;BME280;61877;48.246;9.220;2024-02-04T08:13:44;95149.09;;;4.75;100.00
73600;BME280;61877;48.246;9.220;2024-02-04T08:16:11;95146.13;;;4.82;100.00
73600;BME280;61877;48.246;9.220;2024-02-04T08:18:37;95154.00;;;4.97;100.00
73600;BME280;61877;48.246;9.220;2024-02-04T08:21:05;95156.72;;;4.92;100.00
73600;BME280;61877;48.246;9.220;2024-02-04T08:23:32;95159.28;;;5.07;100.00
73600;BME280;61877;48.246;9.220;2024-02-04T08:26:05;95156.91;;;5.00;100.00
73600;BME280;61877;48.246;9.220;2024-02-04T08:28:32;95152.94;;;4.98;100.00
73600;BME280;61877;48.246;9.220;2024-02-04T08:31:00;95161.25;;;5.25;100.00
73600;BME280;61877;48.246;9.220;2024-02-04T08:33:29;95145.50;;;5.34;100.00
73600;BME280;61877;48.246;9.220;2024-02-04T08:35:59;95147.19;;;5.53;100.00
73600;BME280;61877;48.246;9.220;2024-02-04T08:38:26;95145.75;;;5.66;100.00
73600;BME280;61877;48.246;9.220;2024-02-04T08:40:52;95142.34;;;5.60;100.00
73600;BME280;61877;48.246;9.220;2024-02-04T08:43:20;95146.06;;;5.59;98.12
73600;BME280;61877;48.246;9.220;2024-02-04T08:45:47;95143.22;;;5.51;99.20
73600;BME280;61877;48.246;9.220;2024-02-04T08:48:14;95146.34;;;5.58;99.46
73600;BME280;61877;48.246;9.220;2024-02-04T08:50:40;95142.69;;;5.54;100.00
73600;BME280;61877;48.246;9.220;2024-02-04T08:53:07;95148.69;;;5.64;100.00
73600;BME280;61877;48.246;9.220;2024-02-04T08:55:33;95146.44;;;5.76;99.10
73600;BME280;61877;48.246;9.220;2024-02-04T08:58:00;95138.22;;;5.73;99.05
73600;BME280;61877;48.246;9.220;2024-02-04T09:00:28;95134.16;;;5.85;97.63
73600;BME280;61877;48.246;9.220;2024-02-04T09:02:55;95132.84;;;5.83;97.36
73600;BME280;61877;48.246;9.220;2024-02-04T09:05:22;95122.94;;;5.88;98.66
73600;BME280;61877;48.246;9.220;2024-02-04T09:07:49;95126.72;;;5.77;98.13
73600;BME280;61877;48.246;9.220;2024-02-04T09:10:16;95123.59;;;5.99;97.35
73600;BME280;61877;48.246;9.220;2024-02-04T09:12:42;95118.84;;;5.96;96.14
73600;BME280;61877;48.246;9.220;2024-02-04T09:15:09;95128.25;;;6.12;95.94
73600;BME280;61877;48.246;9.220;2024-02-04T09:17:37;95127.25;;;6.08;96.67
73600;BME280;61877;48.246;9.220;2024-02-04T09:20:05;95124.81;;;6.35;94.48
73600;BME280;61877;48.246;9.220;2024-02-04T09:22:32;95128.78;;;6.56;95.31
73600;BME280;61877;48.246;9.220;2024-02-04T09:24:59;95114.28;;;6.43;93.37
73600;BME280;61877;48.246;9.220;2024-02-04T09:27:26;95111.50;;;6.72;92.67
73600;BME280;61877;48.246;9.220;2024-02-04T09:29:52;95102.06;;;6.80;92.97
73600;BME280;61877;48.246;9.220;2024-02-04T09:32:19;95101.84;;;6.76;92.19
73600;BME280;61877;48.246;9.220;2024-02-04T09:34:47;95107.69;;;6.97;91.40
73600;BME280;61877;48.246;9.220;2024-02-04T09:37:14;95096.34;;;7.05;90.16
73600;BME280;61877;48.246;9.220;2024-02-04T09:39:42;95093.03;;;7.13;90.25
73600;BME280;61877;48.246;9.220;2024-02-04T09:42:08;95099.41;;;7.30;89.12
73600;BME280;61877;48.246;9.220;2024-02-04T09:44:36;95100.13;;;7.36;87.79
73600;BME280;61877;48.246;9.220;2024-02-04T09:47:03;95099.41;;;7.76;87.26
73600;BME280;61877;48.246;9.220;2024-02-04T09:49:30;95109.97;;;7.54;86.57
73600;BME280;61877;48.246;9.220;2024-02-04T09:52:06;95114.69;;;7.89;85.76
73600;BME280;61877;48.246;9.220;2024-02-04T09:54:43;95118.75;;;8.00;84.40
73600;BME280;61877;48.246;9.220;2024-02-04T09:57:10;95119.66;;;7.96;83.80
73600;BME280;61877;48.246;9.220;2024-02-04T09:59:37;95132.56;;;8.34;82.37
73600;BME280;61877;48.246;9.220;2024-02-04T10:02:04;95138.09;;;8.24;82.61
73600;BME280;61877;48.246;9.220;2024-02-04T10:04:31;95135.72;;;8.36;81.00
73600;BME280;61877;48.246;9.220;2024-02-04T10:06:59;95128.59;;;8.45;79.58
73600;BME280;61877;48.246;9.220;2024-02-04T10:09:26;95130.56;;;8.40;79.03
73600;BME280;61877;48.246;9.220;2024-02-04T10:11:54;95130.75;;;8.70;78.82
73600;BME280;61877;48.246;9.220;2024-02-04T10:14:21;95138.47;;;9.21;75.93
73600;BME280;61877;48.246;9.220;2024-02-04T10:16:47;95131.84;;;9.63;73.68
73600;BME280;61877;48.246;9.220;2024-02-04T10:19:14;95142.91;;;9.26;73.97
73600;BME280;61877;48.246;9.220;2024-02-04T10:21:41;95148.22;;;9.39;73.45
73600;BME280;61877;48.246;9.220;2024-02-04T10:24:09;95132.53;;;9.99;72.28
73600;BME280;61877;48.246;9.220;2024-02-04T10:26:36;95139.84;;;10.94;68.26
73600;BME280;61877;48.246;9.220;2024-02-04T10:29:02;95137.50;;;11.60;65.07
73600;BME280;61877;48.246;9.220;2024-02-04T10:31:29;95135.53;;;12.58;60.81
73600;BME280;61877;48.246;9.220;2024-02-04T10:33:56;95141.19;;;13.03;58.25
73600;BME280;61877;48.246;9.220;2024-02-04T10:36:22;95122.63;;;13.63;57.29
73600;BME280;61877;48.246;9.220;2024-02-04T10:38:49;95119.44;;;13.82;56.15
73600;BME280;61877;48.246;9.220;2024-02-04T10:41:18;95105.09;;;14.35;54.71
73600;BME280;61877;48.246;9.220;2024-02-04T10:43:44;95104.66;;;14.45;54.48
73600;BME280;61877;48.246;9.220;2024-02-04T10:46:13;95101.56;;;14.22;54.45
73600;BME280;61877;48.246;9.220;2024-02-04T10:48:42;95103.25;;;15.23;52.03
73600;BME280;61877;48.246;9.220;2024-02-04T10:51:13;95096.78;;;15.79;49.59
73600;BME280;61877;48.246;9.220;2024-02-04T10:53:41;95102.66;;;17.02;47.20
73600;BME280;61877;48.246;9.220;2024-02-04T10:56:13;95112.19;;;17.84;45.01
73600;BME280;61877;48.246;9.220;2024-02-04T10:58:42;95120.13;;;18.76;42.42
73600;BME280;61877;48.246;9.220;2024-02-04T11:01:10;95101.28;;;19.39;41.97
73600;BME280;61877;48.246;9.220;2024-02-04T11:03:39;95085.94;;;19.27;43.83
73600;BME280;61877;48.246;9.220;2024-02-04T11:06:07;95075.97;;;17.58;45.90
73600;BME280;61877;48.246;9.220;2024-02-04T11:08:35;95071.13;;;15.73;47.90
73600;BME280;61877;48.246;9.220;2024-02-04T11:11:01;95069.06;;;14.18;51.46
73600;BME280;61877;48.246;9.220;2024-02-04T11:13:28;95052.31;;;14.85;51.81
73600;BME280;61877;48.246;9.220;2024-02-04T11:15:58;95053.03;;;13.04;55.17
73600;BME280;61877;48.246;9.220;2024-02-04T11:18:42;95045.97;;;13.52;54.69
73600;BME280;61877;48.246;9.220;2024-02-04T11:21:33;95046.31;;;12.89;57.50
73600;BME280;61877;48.246;9.220;2024-02-04T11:24:14;95055.25;;;14.68;52.96
73600;BME280;61877;48.246;9.220;2024-02-04T11:26:47;95062.38;;;16.38;49.55
73600;BME280;61877;48.246;9.220;2024-02-04T11:29:14;95048.25;;;17.30;45.87
73600;BME280;61877;48.246;9.220;2024-02-04T11:31:42;95037.84;;;18.79;43.45
73600;BME280;61877;48.246;9.220;2024-02-04T11:34:10;95050.03;;;15.94;47.22
73600;BME280;61877;48.246;9.220;2024-02-04T11:36:38;95038.50;;;15.82;48.82
73600;BME280;61877;48.246;9.220;2024-02-04T11:39:11;95032.72;;;14.88;51.14
73600;BME280;61877;48.246;9.220;2024-02-04T11:41:44;95033.84;;;15.82;48.83
73600;BME280;61877;48.246;9.220;2024-02-04T11:44:11;95022.47;;;16.51;47.55
73600;BME280;61877;48.246;9.220;2024-02-04T11:46:37;95022.97;;;16.41;47.84
73600;BME280;61877;48.246;9.220;2024-02-04T11:49:14;95028.34;;;15.79;49.84
73600;BME280;61877;48.246;9.220;2024-02-04T11:51:44;95027.19;;;13.88;53.66
73600;BME280;61877;48.246;9.220;2024-02-04T11:54:11;95029.88;;;13.11;56.64
73600;BME280;61877;48.246;9.220;2024-02-04T11:56:38;95041.25;;;12.38;59.71
73600;BME280;61877;48.246;9.220;2024-02-04T11:59:05;95039.75;;;12.28;60.24
73600;BME280;61877;48.246;9.220;2024-02-04T12:01:33;95027.13;;;12.20;61.07
73600;BME280;61877;48.246;9.220;2024-02-04T12:04:10;95028.34;;;12.23;61.63
73600;BME280;61877;48.246;9.220;2024-02-04T12:06:37;95021.34;;;12.30;61.34
73600;BME280;61877;48.246;9.220;2024-02-04T12:09:05;95003.81;;;12.53;61.41
73600;BME280;61877;48.246;9.220;2024-02-04T12:11:31;94996.81;;;12.81;60.83
73600;BME280;61877;48.246;9.220;2024-02-04T12:13:59;94995.09;;;14.56;56.63
73600;BME280;61877;48.246;9.220;2024-02-04T12:16:26;94993.34;;;16.63;49.55
73600;BME280;61877;48.246;9.220;2024-02-04T12:18:53;94987.84;;;18.87;44.21
73600;BME280;61877;48.246;9.220;2024-02-04T12:21:21;94994.19;;;18.95;43.44
73600;BME280;61877;48.246;9.220;2024-02-04T12:23:47;94989.13;;;17.20;46.50
73600;BME280;61877;48.246;9.220;2024-02-04T12:26:14;94992.03;;;16.42;48.06
73600;BME280;61877;48.246;9.220;2024-02-04T12:28:41;94986.13;;;16.36;48.55
73600;BME280;61877;48.246;9.220;2024-02-04T12:31:07;94966.84;;;16.72;48.15
73600;BME280;61877;48.246;9.220;2024-02-04T12:33:34;94955.63;;;17.09;47.79
73600;BME280;61877;48.246;9.220;2024-02-04T12:36:01;94962.09;;;17.61;47.31
73600;BME280;61877;48.246;9.220;2024-02-04T12:38:29;94965.16;;;18.76;44.22
73600;BME280;61877;48.246;9.220;2024-02-04T12:41:01;94963.69;;;19.75;41.77
73600;BME280;61877;48.246;9.220;2024-02-04T12:43:27;94953.06;;;20.06;41.44
73600;BME280;61877;48.246;9.220;2024-02-04T12:45:56;94956.97;;;19.65;41.85
73600;BME280;61877;48.246;9.220;2024-02-04T12:48:23;94966.09;;;17.29;46.13
73600;BME280;61877;48.246;9.220;2024-02-04T12:50:49;94951.25;;;15.57;50.94
73600;BME280;61877;48.246;9.220;2024-02-04T12:53:19;94949.13;;;14.68;54.52
73600;BME280;61877;48.246;9.220;2024-02-04T12:55:47;94942.44;;;13.77;58.04
73600;BME280;61877;48.246;9.220;2024-02-04T12:58:13;94943.03;;;13.38;59.06
73600;BME280;61877;48.246;9.220;2024-02-04T13:00:40;94922.44;;;13.54;59.18
73600;BME280;61877;48.246;9.220;2024-02-04T13:03:08;94920.41;;;14.23;57.78